USCGC Healy — NEPP — position and weather

sailwx.info

Track history (hours):
 
Tides and Currents Weather Stations Pressure Air Temp Water Temp Dewpoint Dewpoint Depression Visibility Wind Speed Wind Dir Waves Ship Positions

Oceanographic research ship USCGC Healy (USA)

Detailed information on ship capabilities available from University of Delaware's Ocean Information Center and ARCUS's ALIAS (Arctic Logistics Information and Support) project.

Last reported at 2018-Aug-14 20:00 UTC. Time now 2018-Aug-14 21:08 UTC.
Position N 70°48' W 163°06'.

Type: Other ship. MMSI: 303902000.

AWS

Wind from 270 at 13 knots

Barometer 1016.3 mb
Air temperature 4.1 ° C
Dewpoint 2.0 ° C
Water temperature 7.3 ° C

Date/timePositionNaut miles runAvg speedWind from/ knotsBaromVisibWave heightAir tempDewpointWater temp
2018-Aug-14 20:00N 70°48' W 163°06'0 0.0 270 / 131016.3 4.1 2.0 7.3
2018-Aug-14 19:00N 70°48' W 163°06'0 0.0 270 / 121016.6 3.0 1.1 7.3
2018-Aug-14 18:00N 70°48' W 163°06'0 0.0 270 / 121017.0 3.4 1.1 7.2
2018-Aug-14 17:00N 70°48' W 163°06'0 0.0 250 / 61017.3 2.9 0.9 7.4
2018-Aug-14 16:00N 70°48' W 163°06'0 0.0 300 / 51017.6 2.2 0.5 7.5
2018-Aug-14 15:00N 70°48' W 163°06'10 9.9 350 / 71017.7 1.4-0.0 7.5
2018-Aug-14 14:00N 70°42' W 162°42'7 7.2 030 / 71017.6 2.1 0.8 7.1
2018-Aug-14 13:00N 70°36' W 162°30'0 0.0 1018.2 0.8 0.8 7.6
2018-Aug-14 12:00N 70°36' W 162°30'23 4.5 050 / 71018.2 0.8 0.8 7.2
2018-Aug-14 07:00N 70°54' W 163°12'6 6.0 030 / 121017.9 0.9 0.6 7.8
2018-Aug-14 06:00N 70°48' W 163°12'7 7.2 040 / 141017.5 1.1 0.6 7.8
2018-Aug-14 05:00N 70°54' W 163°24'7 7.2 010 / 131017.6 0.6 0.3 6.9
2018-Aug-14 04:00N 71°00' W 163°36'0 0.0 020 / 151017.4 0.7 0.1 4.9
2018-Aug-14 03:00N 71°00' W 163°36'2 2.0 030 / 151017.3 1.4-0.1 6.3
2018-Aug-14 02:00N 71°00' W 163°42'4 3.9 030 / 171017.1 1.3-0.3 5.7
2018-Aug-14 01:00N 71°00' W 163°54'2 2.0 020 / 211017.0 2.0 0.6 6.4
2018-Aug-14 00:00N 71°00' W 164°00'1312.6 010 / 211016.8 2.0 0.3 6.0
2018-Aug-13 23:00N 71°12' W 164°12'2 1.9 020 / 181017.1 2.2 0.7 5.2
2018-Aug-13 22:00N 71°12' W 164°18'0 0.0 020 / 161016.5 1.2 0.6 4.9
2018-Aug-13 21:00N 71°12' W 164°18'2 1.9 020 / 171016.1 0.9 0.3 5.0
2018-Aug-13 20:00N 71°12' W 164°12'2 1.9 040 / 181015.6 1.5 0.4 5.0
2018-Aug-13 19:00N 71°12' W 164°18'2 1.9 030 / 171015.3 0.7-0.1 5.1
2018-Aug-13 18:00N 71°12' W 164°12'0 0.0 030 / 181014.9 0.5 0.1 4.9
2018-Aug-13 17:00N 71°12' W 164°12'0 0.0 070 / 71014.9 1.0 0.1 4.9
2018-Aug-13 16:00N 71°12' W 164°12'7 7.1 020 / 181014.2 1.1-0.3 4.8
2018-Aug-13 15:00N 71°06' W 164°00'4 3.9 040 / 231013.2 1.1-0.7 5.7
2018-Aug-13 14:00N 71°06' W 163°48'0 0.0 030 / 181013.1 1.1 0.1 6.2
2018-Aug-13 13:00N 71°06' W 163°48'7 7.1 030 / 231012.8 1.1 0.1 6.0
2018-Aug-13 12:00N 71°12' W 164°00'4 3.9 030 / 221012.7 1.6 0.4 5.6
2018-Aug-13 11:00N 71°12' W 164°12'2 1.9 040 / 171012.4 1.5 0.9 5.1
2018-Aug-13 10:00N 71°12' W 164°18'7 7.1 020 / 211012.9 1.7 0.5 4.4
2018-Aug-13 09:00N 71°18' W 164°30'2 1.9 020 / 201012.9 1.4 0.4 4.0
2018-Aug-13 08:00N 71°18' W 164°36'6 6.3 030 / 161012.5 1.4 0.5 4.4
2018-Aug-13 07:00N 71°24' W 164°42'2 1.9 050 / 191012.2 1.2 0.2 4.1
2018-Aug-13 06:00N 71°24' W 164°48'6 6.3 040 / 191012.1 0.6-0.2 4.1
2018-Aug-13 05:00N 71°30' W 164°54'6 6.0 040 / 161012.3 0.7 0.2 4.2
2018-Aug-13 04:00N 71°24' W 164°54'7 7.1 020 / 161012.5 0.3 0.3 4.1
2018-Aug-13 03:00N 71°30' W 165°06'7 7.1 020 / 141012.5 0.5-0.2 4.5
2018-Aug-13 02:00N 71°36' W 165°18'0 0.0 020 / 151012.6 1.0 1.0 5.4
2018-Aug-13 01:00N 71°36' W 165°18'7 7.1 1012.7 1.3 0.8 5.9
2018-Aug-13 00:00N 71°42' W 165°30'2 1.9 030 / 151012.9 1.7 1.6 6.1
2018-Aug-12 23:00N 71°42' W 165°36'0 0.0 010 / 121013.6 2.2 1.8 6.4
2018-Aug-12 22:00N 71°42' W 165°36'7 7.1 020 / 141013.8 2.3 1.8 6.4
2018-Aug-12 21:00N 71°48' W 165°48'6 5.6 360 / 141014.2 1.9 1.8 6.4
2018-Aug-12 20:00N 71°48' W 166°06'0 0.0 360 / 101014.7 1.5 1.5 6.4
2018-Aug-12 19:00N 71°48' W 166°06'0 0.0 010 / 101015.3 1.4 1.4 6.4
2018-Aug-12 18:00N 71°48' W 166°06'0 0.0 320 / 101015.7 1.2 1.2 6.4
2018-Aug-12 17:00N 71°48' W 166°06'0 0.0 350 / 101015.9 1.3 1.3 6.1
2018-Aug-12 16:00N 71°48' W 166°06'0 0.0 350 / 71016.4 1.3 1.3 6.4
2018-Aug-12 15:00N 71°48' W 166°06'2 1.9 010 / 51016.9 1.4 1.4 5.6
2018-Aug-12 14:00N 71°48' W 166°00'0 0.0 010 / 71017.2 1.6 1.6 6.4
2018-Aug-12 13:00N 71°48' W 166°00'1312.6 360 / 81017.5 1.5 1.5 6.5
2018-Aug-12 12:00N 71°36' W 166°12'1313.3 350 / 61017.5 2.0 2.0 6.8
2018-Aug-12 11:00N 71°24' W 166°30'1312.6 040 / 61017.6 2.5 2.5 7.0
2018-Aug-12 10:00N 71°12' W 166°42'1313.3 040 / 91017.3 2.8 2.8 7.7
2018-Aug-12 09:00N 71°00' W 167°00'1818.4 050 / 121017.2 4.2 3.7 8.2
2018-Aug-12 08:00N 70°42' W 167°12'1312.6 070 / 141016.6 4.4 3.2 8.2
2018-Aug-12 07:00N 70°30' W 167°24'1313.4 060 / 151016.4 4.1 3.7 9.1
2018-Aug-12 06:00N 70°18' W 167°42'6 6.3 080 / 181015.9 4.4 3.5 8.6
2018-Aug-12 05:00N 70°12' W 167°48'0 0.0 050 / 201017.0 4.6 3.8 9.0
2018-Aug-12 04:00N 70°12' W 167°48'0 0.0 060 / 171017.3 4.7 3.7 8.7
2018-Aug-12 03:00N 70°12' W 167°48'9 8.6 060 / 171017.5 4.8 4.0 8.2
2018-Aug-12 02:00N 70°06' W 167°30'1413.7 060 / 231017.1 5.1 4.0 9.1
2018-Aug-12 01:00N 70°00' W 166°54'0 0.0 070 / 221017.0 6.1 4.6 9.8
2018-Aug-12 00:00N 70°00' W 166°54'0 0.0 060 / 141017.2 6.2 3.9 9.8
2018-Aug-11 23:00N 70°00' W 166°54'0 0.0 050 / 181017.4 6.1 3.8 9.2
2018-Aug-11 22:00N 70°00' W 166°54'0 0.0 060 / 181017.4 6.2 3.9 9.0
2018-Aug-11 21:00N 70°00' W 166°54'0 0.0 070 / 191017.4 6.2 5.1 9.8
2018-Aug-11 20:00N 70°00' W 166°54'0 0.0 060 / 161017.4 6.2 4.7 9.6
2018-Aug-11 19:00N 70°00' W 166°54'1312.7 080 / 201015.7 6.6 5.4 9.8
2018-Aug-11 18:00N 69°48' W 167°06'125 8.9 080 / 201014.9 8.0 6.210.2
2018-Aug-11 04:00N 67°48' W 168°42'2 2.3 060 / 71013.6 7.2 6.4 6.4
2018-Aug-11 03:00N 67°48' W 168°36'0 0.0 070 / 71013.8 7.4 6.5 6.3
2018-Aug-11 02:00N 67°48' W 168°36'0 0.0 090 / 81013.7 7.1 6.7 6.2
2018-Aug-11 01:00N 67°48' W 168°36'9 9.1 090 / 81013.9 7.4 7.2 6.5
2018-Aug-11 00:00N 67°54' W 168°18'2 2.3 100 / 101014.0 7.6 7.0 7.1
2018-Aug-10 23:00N 67°54' W 168°12'0 0.0 090 / 111013.8 7.8 6.0 6.9
2018-Aug-10 22:00N 67°54' W 168°12'0 0.0 090 / 81013.4 7.4 6.7 6.3
2018-Aug-10 21:00N 67°54' W 168°12'0 0.0 080 / 91013.5 7.4 6.8 6.5
2018-Aug-10 20:00N 67°54' W 168°12'0 0.0 090 / 71013.5 7.6 6.5 6.9
2018-Aug-10 19:00N 67°54' W 168°12'0 0.0 080 / 91013.4 7.7 6.2 6.9
2018-Aug-10 18:00N 67°54' W 168°12'0 0.0 060 / 91013.1 7.7 6.8 7.0
2018-Aug-10 17:00N 67°54' W 168°12'0 0.0 060 / 81013.0 7.7 6.5 7.3
2018-Aug-10 16:00N 67°54' W 168°12'9 9.0 060 / 91012.8 7.6 6.5 7.2
2018-Aug-10 15:00N 68°00' W 167°54'0 0.0 050 / 81013.0 7.8 6.9 7.9
2018-Aug-10 14:00N 68°00' W 167°54'2 2.2 060 / 81013.4 8.0 6.5 7.8
2018-Aug-10 13:00N 68°00' W 167°48'9 9.0 040 / 81013.2 8.2 6.2 8.4
2018-Aug-10 12:00N 68°06' W 167°30'0 0.0 070 / 111013.6 8.4 6.1 9.7
2018-Aug-10 11:00N 68°06' W 167°30'6 6.4 060 / 111013.4 8.5 6.1 9.8
2018-Aug-10 10:00N 68°12' W 167°24'2 2.2 070 / 91013.4 9.2 6.410.3
2018-Aug-10 09:00N 68°12' W 167°18'0 0.0 030 / 121013.0 9.4 5.3 8.3
2018-Aug-10 08:00N 68°12' W 167°18'4 4.5 030 / 151013.0 9.5 5.510.8
2018-Aug-10 07:00N 68°12' W 167°06'6 6.4 030 / 171012.7 9.6 5.510.6
2018-Aug-10 06:00N 68°18' W 167°00'2 2.2 030 / 161012.7 9.7 5.511.3
2018-Aug-10 05:00N 68°18' W 166°54'2 2.2 020 / 161012.3 9.7 5.6 9.6
2018-Aug-10 04:00N 68°18' W 167°00'1413.7 020 / 171011.7 9.4 5.211.2
2018-Aug-10 03:00N 68°06' W 167°18'1413.8 020 / 171011.5 9.4 5.2 9.8
2018-Aug-10 02:00N 67°54' W 167°36'1413.8 020 / 101012.3 8.6 5.3 7.8
2018-Aug-10 01:00N 67°42' W 167°54'1413.8 010 / 71012.7 7.8 4.8 7.3
2018-Aug-10 00:00N 67°30' W 168°12'1413.9 010 / 61012.8 8.1 4.410.6
2018-Aug-09 23:00N 67°18' W 168°30'8 7.6 010 / 101012.6 7.9 4.611.0
2018-Aug-09 22:00N 67°12' W 168°42'0 0.0 030 / 141013.2 8.1 5.410.5
2018-Aug-09 21:00N 67°12' W 168°42'1212.0 020 / 121013.1 8.1 3.7 9.8
2018-Aug-09 20:00N 67°00' W 168°42'1818.0 050 / 111012.3 8.3 4.111.0
2018-Aug-09 19:00N 66°42' W 168°42'6 6.0 050 / 121012.6 8.7 4.710.1
2018-Aug-09 18:00N 66°36' W 168°42'1212.0 060 / 131011.8 8.8 4.611.8
2018-Aug-09 17:00N 66°24' W 168°42'0 0.0 050 / 181012.0 9.0 5.4 9.8
2018-Aug-09 16:00N 66°24' W 168°42'6 6.0 070 / 121012.2 9.1 4.7 8.6
2018-Aug-09 15:00N 66°18' W 168°42'1212.0 080 / 101011.6 8.8 4.511.4
2018-Aug-09 14:00N 66°06' W 168°42'1212.2 080 / 121011.6 8.6 5.0 9.7
2018-Aug-09 13:00N 65°54' W 168°48'1818.0 070 / 141011.2 8.9 5.811.3
2018-Aug-09 12:00N 65°36' W 168°48'1212.3 080 / 181010.6 8.9 6.7 9.9
2018-Aug-09 11:00N 65°24' W 168°54'1918.7 080 / 141010.8 9.4 7.410.0
2018-Aug-09 10:00N 65°06' W 169°06'1212.0 100 / 141011.0 10.1 6.511.5
2018-Aug-09 09:00N 64°54' W 169°06'1212.0 090 / 151011.0 9.9 6.411.7
2018-Aug-09 08:00N 64°42' W 169°06'0 0.0 110 / 181011.1 9.5 7.411.7
2018-Aug-09 07:00N 64°42' W 169°06'1010.3 100 / 141011.4 9.7 6.511.6
2018-Aug-09 06:00N 64°42' W 169°30'1010.3 120 / 131010.5 10.1 6.511.7
2018-Aug-09 05:00N 64°42' W 169°54'0 0.0 100 / 151011.2 10.0 6.811.4
2018-Aug-09 04:00N 64°42' W 169°54'0 0.0 100 / 161011.4 9.9 6.411.2
2018-Aug-09 03:00N 64°42' W 169°54'1212.0 100 / 171011.5 9.8 6.111.6
2018-Aug-09 02:00N 64°54' W 169°54'6 6.0 090 / 131012.3 9.2 5.711.4
2018-Aug-09 01:00N 65°00' W 169°54'5 5.1 080 / 91013.0 8.9 4.2 9.4
2018-Aug-09 00:00N 65°00' W 169°42'1312.7 100 / 101013.4 8.8 4.711.4
2018-Aug-08 23:00N 65°00' W 169°12'3 2.5 070 / 101013.6 8.5 5.111.6
2018-Aug-08 22:00N 65°00' W 169°06'3 2.5 050 / 81013.6 8.7 5.210.8
2018-Aug-08 21:00N 65°00' W 169°00'1414.0 070 / 71013.6 8.2 5.211.2
2018-Aug-08 20:00N 64°54' W 168°30'3 2.5 020 / 71013.4 8.2 5.610.3
2018-Aug-08 19:00N 64°54' W 168°24'0 0.0 340 / 51013.6 8.6 4.910.1
2018-Aug-08 18:00N 64°54' W 168°24'7 6.5 040 / 61013.4 8.8 5.210.7
2018-Aug-08 17:00N 64°48' W 168°30'1211.9 010 / 41013.1 16.713.010.4
2018-Aug-08 16:00N 64°42' W 168°54'5 5.1 060 / 51013.0 8.4 5.211.6
2018-Aug-08 15:00N 64°42' W 169°06'0 0.0 040 / 51013.4 8.8 6.111.1
2018-Aug-08 14:00N 64°42' W 169°06'3 2.6 050 / 71013.6 8.8 6.511.7
2018-Aug-08 13:00N 64°42' W 169°00'1312.8 330 / 31013.2 9.3 5.611.6
2018-Aug-08 12:00N 64°42' W 168°30'8 7.7 030 / 41013.6 8.8 5.110.9
2018-Aug-08 11:00N 64°42' W 168°12'0 0.0 320 / 51013.7 8.7 5.010.2
2018-Aug-08 10:00N 64°42' W 168°12'0 0.0 320 / 51013.6 8.6 4.810.9
2018-Aug-08 09:00N 64°42' W 168°12'1414.2 340 / 71013.2 8.6 4.911.8
2018-Aug-08 08:00N 64°36' W 167°42'1414.2 340 / 91012.8 9.1 4.312.6
2018-Aug-08 07:00N 64°30' W 167°12'1312.9 340 / 121012.3 9.5 5.712.8
2018-Aug-08 06:00N 64°30' W 166°42'1414.3 340 / 141011.8 10.1 5.214.6
2018-Aug-08 05:00N 64°24' W 166°12'1313.0 010 / 171011.2 9.7 6.115.2
2018-Aug-08 04:00N 64°24' W 165°42'5 5.2 330 / 211010.1 10.9 6.719.8
2018-Aug-08 03:00N 64°24' W 165°30'6 6.0 330 / 181011.3 11.1 5.419.8
2018-Aug-08 02:00N 64°30' W 165°30'0 0.0 340 / 121011.1 11.4 5.019.4
2018-Aug-08 01:00N 64°30' W 165°30'0 0.0 330 / 91011.2 11.1 2.819.3
2018-Aug-08 00:00N 64°30' W 165°30'0 0.0 300 / 131011.3 11.0 2.819.2
2018-Aug-07 23:00N 64°30' W 165°30'0 0.0 340 / 131011.4 11.3 2.219.2
2018-Aug-07 22:00N 64°30' W 165°30'0 0.0 330 / 101011.7 10.6 2.219.0
2018-Aug-07 21:00N 64°30' W 165°30'0 0.0 330 / 51011.8 11.2 3.718.8
2018-Aug-07 20:00N 64°30' W 165°30'0 0.0 340 / 71011.8 10.5 4.218.7
2018-Aug-07 19:00N 64°30' W 165°30'0 0.0 1011.6 10.0 3.718.6
2018-Aug-07 18:00N 64°30' W 165°30'0 0.0 330 / 71011.6 13.7 7.918.4
2018-Aug-07 17:00N 64°30' W 165°30'0 0.0 340 / 71011.8 7.6 3.418.3
2018-Aug-07 16:00N 64°30' W 165°30'0 0.0 350 / 71011.5 6.6 4.118.2
2018-Aug-07 15:00N 64°30' W 165°30'0 0.0 360 / 91011.4 6.5 3.918.2
2018-Aug-07 14:00N 64°30' W 165°30'0 0.0 1011.4 6.8 3.418.1
2018-Aug-07 13:00N 64°30' W 165°30'0 0.0 010 / 81011.4 7.4 4.418.0
2018-Aug-07 12:00N 64°30' W 165°30'0 0.0 340 / 61011.3 7.8 4.917.9
2018-Aug-07 11:00N 64°30' W 165°30'0 0.0 350 / 81011.0 8.6 4.517.7
2018-Aug-07 10:00N 64°30' W 165°30'0 0.0 010 / 61010.9 9.4 4.817.6
2018-Aug-07 09:00N 64°30' W 165°30'0 0.0 360 / 81010.6 10.2 4.217.4
2018-Aug-07 08:00N 64°30' W 165°30'0 0.0 010 / 111010.2 11.2 4.417.1
2018-Aug-07 07:00N 64°30' W 165°30'0 0.0 1010.0 12.0 5.616.9
2018-Aug-07 06:00N 64°30' W 165°30'0 0.0 010 / 111009.6 12.6 4.716.5
2018-Aug-07 05:00N 64°30' W 165°30'7 6.5 310 / 131009.2 13.1 5.416.1
2018-Aug-07 04:00N 64°24' W 165°36'1918.7 300 / 191008.8 12.3 6.215.7
2018-Aug-07 03:00N 64°06' W 165°48'1212.3 310 / 181009.4 11.2 6.315.2
2018-Aug-07 02:00N 63°54' W 165°54'1313.1 310 / 151010.1 10.9 7.014.5
2018-Aug-07 01:00N 63°42' W 166°06'1313.1 330 / 141010.3 10.8 6.514.2
2018-Aug-07 00:00N 63°30' W 166°18'1212.3 330 / 101010.4 11.3 6.912.9
2018-Aug-06 23:00N 63°18' W 166°24'1313.2 010 / 71010.4 11.4 7.911.6
2018-Aug-06 22:00N 63°06' W 166°36'1313.2 310 / 61010.4 11.3 8.611.9
2018-Aug-06 21:00N 62°54' W 166°48'1818.2 300 / 61010.4 11.1 9.911.8
2018-Aug-06 20:00N 62°36' W 166°54'1313.2 280 / 141010.1 10.510.512.0
2018-Aug-06 19:00N 62°24' W 167°06'1212.3 270 / 141010.3 10.110.010.8
2018-Aug-06 18:00N 62°12' W 167°12'1212.3 270 / 111010.4 10.6 9.110.6
2018-Aug-06 17:00N 62°00' W 167°18'1313.3 280 / 101010.4 10.3 9.810.1
2018-Aug-06 16:00N 61°48' W 167°30'1818.2 280 / 101010.3 10.2 9.910.5
2018-Aug-06 15:00N 61°30' W 167°36'1212.3 260 / 81011.0 10.210.110.7
2018-Aug-06 14:00N 61°18' W 167°42'1212.3 270 / 81011.0 9.9 9.910.6
2018-Aug-06 13:00N 61°06' W 167°48'1313.3 260 / 81011.0 9.8 9.810.8
2018-Aug-06 12:00N 60°54' W 168°00'1212.4 270 / 101011.4 9.9 9.910.9
2018-Aug-06 11:00N 60°42' W 168°06'1818.2 250 / 111011.8 10.010.010.7
2018-Aug-06 10:00N 60°24' W 168°12'1212.4 240 / 131012.3 9.8 9.810.6
2018-Aug-06 09:00N 60°12' W 168°18'1212.0 240 / 141012.3 9.6 9.610.0
2018-Aug-06 08:00N 60°00' W 168°18'1313.4 220 / 161012.6 9.6 9.6 9.8
2018-Aug-06 07:00N 59°48' W 168°06'1212.4 220 / 141012.9 9.6 9.6 9.4
2018-Aug-06 06:00N 59°36' W 168°00'1919.0 220 / 141013.2 9.4 9.4 9.0
2018-Aug-06 05:00N 59°18' W 167°48'1212.4 220 / 161013.7 9.5 9.5 8.9
2018-Aug-06 04:00N 59°06' W 167°42'1212.4 220 / 181014.0 9.5 9.5 8.7
2018-Aug-06 03:00N 58°54' W 167°36'1212.4 240 / 181014.2 9.4 9.4 8.8
2018-Aug-06 02:00N 58°42' W 167°30'1413.5 240 / 231014.4 9.5 9.5 9.1
2018-Aug-06 01:00N 58°30' W 167°18'1212.4 240 / 241014.4 9.7 9.7 9.2
2018-Aug-06 00:00N 58°18' W 167°12'1212.4 240 / 281014.4 10.2 9.8 9.6
2018-Aug-05 23:00N 58°06' W 167°06'1818.3 240 / 271014.4 10.410.0 9.6
2018-Aug-05 22:00N 57°48' W 167°00'1413.6 240 / 331014.6 10.910.6 9.5
2018-Aug-05 21:00N 57°36' W 166°48'1212.4 220 / 281014.9 11.210.8 9.5
2018-Aug-05 20:00N 57°24' W 166°42'1818.3 220 / 281015.7 11.311.2 9.9
2018-Aug-05 19:00N 57°06' W 166°36'1413.7 220 / 271016.6 11.211.210.2
2018-Aug-05 18:00N 56°54' W 166°24'1212.4 220 / 251017.4 11.311.310.2
2018-Aug-05 17:00N 56°42' W 166°18'1212.4 210 / 231017.8 11.011.010.3
2018-Aug-05 16:00N 56°30' W 166°12'1818.3 210 / 251018.8 11.011.010.4
2018-Aug-05 15:00N 56°12' W 166°06'1413.7 220 / 221019.4 11.011.010.3
2018-Aug-05 14:00N 56°00' W 165°54'1212.5 220 / 221020.2 11.011.010.1
2018-Aug-05 13:00N 55°48' W 165°48'1212.5 220 / 211020.8 11.311.310.1
2018-Aug-05 12:00N 55°36' W 165°42'1212.5 220 / 191022.2 11.411.410.0
2018-Aug-05 11:00N 55°24' W 165°36'1212.5 220 / 201022.5 11.911.8 9.6
2018-Aug-05 10:00N 55°12' W 165°30'1919.3 220 / 161023.5 11.211.0 8.8
2018-Aug-05 09:00N 54°54' W 165°18'1212.5 210 / 151023.9 11.211.0 8.2
2018-Aug-05 08:00N 54°42' W 165°12'1212.5 200 / 151024.3 12.512.0 9.0
2018-Aug-05 07:00N 54°30' W 165°06'1818.4 140 / 81024.7 14.213.7 8.2
2018-Aug-05 06:00N 54°18' W 164°42'1515.2 340 / 131023.8 14.714.1 8.9
2018-Aug-05 05:00N 54°24' W 164°18'1515.2 270 / 181022.9 16.314.810.7
2018-Aug-05 04:00N 54°30' W 163°54'1413.9 310 / 171022.4 17.315.6 9.4
2018-Aug-05 03:00N 54°30' W 163°30'1212.0 280 / 251020.5 15.614.210.9
2018-Aug-05 02:00N 54°36' W 163°12'1515.1 120 / 91022.8 13.111.711.3
2018-Aug-05 01:00N 54°42' W 162°48'1413.9 350 / 261022.0 13.713.1 9.8
2018-Aug-05 00:00N 54°54' W 162°36'1212.0 010 / 81021.5 13.612.210.0
2018-Aug-04 23:00N 55°00' W 162°18'1413.8 340 / 231020.0 13.311.9 9.8
2018-Aug-04 22:00N 55°00' W 161°54'1212.0 280 / 261018.0 15.011.5 9.8
2018-Aug-04 21:00N 55°12' W 161°54'9 9.1 280 / 261019.0 13.410.510.4
2018-Aug-04 20:00N 55°18' W 161°42'   300 / 101017.0 14.510.810.3
Track history (hours):
 
Tides and Currents Weather Stations Pressure Air Temp Water Temp Dewpoint Dewpoint Depression Visibility Wind Speed Wind Dir Waves Ship Positions

Oceanographic research ship USCGC Healy (USA)

Detailed information on ship capabilities available from University of Delaware's Ocean Information Center and ARCUS's ALIAS (Arctic Logistics Information and Support) project.

Last reported at 2018-Aug-14 20:00 UTC. Time now 2018-Aug-14 21:08 UTC.
Position N 70°48' W 163°06'.

Type: Other ship. MMSI: 303902000.

AWS

Wind from 270 at 13 knots

Barometer 1016.3 mb
Air temperature 4.1 ° C
Dewpoint 2.0 ° C
Water temperature 7.3 ° C

Date/timePositionNaut miles runAvg speedWind from/ knotsBaromVisibWave heightAir tempDewpointWater temp
2018-Aug-14 20:00N 70°48' W 163°06'0 0.0 270 / 131016.3 4.1 2.0 7.3
2018-Aug-14 19:00N 70°48' W 163°06'0 0.0 270 / 121016.6 3.0 1.1 7.3
2018-Aug-14 18:00N 70°48' W 163°06'0 0.0 270 / 121017.0 3.4 1.1 7.2
2018-Aug-14 17:00N 70°48' W 163°06'0 0.0 250 / 61017.3 2.9 0.9 7.4
2018-Aug-14 16:00N 70°48' W 163°06'0 0.0 300 / 51017.6 2.2 0.5 7.5
2018-Aug-14 15:00N 70°48' W 163°06'10 9.9 350 / 71017.7 1.4-0.0 7.5
2018-Aug-14 14:00N 70°42' W 162°42'7 7.2 030 / 71017.6 2.1 0.8 7.1
2018-Aug-14 13:00N 70°36' W 162°30'0 0.0 1018.2 0.8 0.8 7.6
2018-Aug-14 12:00N 70°36' W 162°30'23 4.5 050 / 71018.2 0.8 0.8 7.2
2018-Aug-14 07:00N 70°54' W 163°12'6 6.0 030 / 121017.9 0.9 0.6 7.8
2018-Aug-14 06:00N 70°48' W 163°12'7 7.2 040 / 141017.5 1.1 0.6 7.8
2018-Aug-14 05:00N 70°54' W 163°24'7 7.2 010 / 131017.6 0.6 0.3 6.9
2018-Aug-14 04:00N 71°00' W 163°36'0 0.0 020 / 151017.4 0.7 0.1 4.9
2018-Aug-14 03:00N 71°00' W 163°36'2 2.0 030 / 151017.3 1.4-0.1 6.3
2018-Aug-14 02:00N 71°00' W 163°42'4 3.9 030 / 171017.1 1.3-0.3 5.7
2018-Aug-14 01:00N 71°00' W 163°54'2 2.0 020 / 211017.0 2.0 0.6 6.4
2018-Aug-14 00:00N 71°00' W 164°00'1312.6 010 / 211016.8 2.0 0.3 6.0
2018-Aug-13 23:00N 71°12' W 164°12'2 1.9 020 / 181017.1 2.2 0.7 5.2
2018-Aug-13 22:00N 71°12' W 164°18'0 0.0 020 / 161016.5 1.2 0.6 4.9
2018-Aug-13 21:00N 71°12' W 164°18'2 1.9 020 / 171016.1 0.9 0.3 5.0
2018-Aug-13 20:00N 71°12' W 164°12'2 1.9 040 / 181015.6 1.5 0.4 5.0
2018-Aug-13 19:00N 71°12' W 164°18'2 1.9 030 / 171015.3 0.7-0.1 5.1
2018-Aug-13 18:00N 71°12' W 164°12'0 0.0 030 / 181014.9 0.5 0.1 4.9
2018-Aug-13 17:00N 71°12' W 164°12'0 0.0 070 / 71014.9 1.0 0.1 4.9
2018-Aug-13 16:00N 71°12' W 164°12'7 7.1 020 / 181014.2 1.1-0.3 4.8
2018-Aug-13 15:00N 71°06' W 164°00'4 3.9 040 / 231013.2 1.1-0.7 5.7
2018-Aug-13 14:00N 71°06' W 163°48'0 0.0 030 / 181013.1 1.1 0.1 6.2
2018-Aug-13 13:00N 71°06' W 163°48'7 7.1 030 / 231012.8 1.1 0.1 6.0
2018-Aug-13 12:00N 71°12' W 164°00'4 3.9 030 / 221012.7 1.6 0.4 5.6
2018-Aug-13 11:00N 71°12' W 164°12'2 1.9 040 / 171012.4 1.5 0.9 5.1
2018-Aug-13 10:00N 71°12' W 164°18'7 7.1 020 / 211012.9 1.7 0.5 4.4
2018-Aug-13 09:00N 71°18' W 164°30'2 1.9 020 / 201012.9 1.4 0.4 4.0
2018-Aug-13 08:00N 71°18' W 164°36'6 6.3 030 / 161012.5 1.4 0.5 4.4
2018-Aug-13 07:00N 71°24' W 164°42'2 1.9 050 / 191012.2 1.2 0.2 4.1
2018-Aug-13 06:00N 71°24' W 164°48'6 6.3 040 / 191012.1 0.6-0.2 4.1
2018-Aug-13 05:00N 71°30' W 164°54'6 6.0 040 / 161012.3 0.7 0.2 4.2
2018-Aug-13 04:00N 71°24' W 164°54'7 7.1 020 / 161012.5 0.3 0.3 4.1
2018-Aug-13 03:00N 71°30' W 165°06'7 7.1 020 / 141012.5 0.5-0.2 4.5
2018-Aug-13 02:00N 71°36' W 165°18'0 0.0 020 / 151012.6 1.0 1.0 5.4
2018-Aug-13 01:00N 71°36' W 165°18'7 7.1 1012.7 1.3 0.8 5.9
2018-Aug-13 00:00N 71°42' W 165°30'2 1.9 030 / 151012.9 1.7 1.6 6.1
2018-Aug-12 23:00N 71°42' W 165°36'0 0.0 010 / 121013.6 2.2 1.8 6.4
2018-Aug-12 22:00N 71°42' W 165°36'7 7.1 020 / 141013.8 2.3 1.8 6.4
2018-Aug-12 21:00N 71°48' W 165°48'6 5.6 360 / 141014.2 1.9 1.8 6.4
2018-Aug-12 20:00N 71°48' W 166°06'0 0.0 360 / 101014.7 1.5 1.5 6.4
2018-Aug-12 19:00N 71°48' W 166°06'0 0.0 010 / 101015.3 1.4 1.4 6.4
2018-Aug-12 18:00N 71°48' W 166°06'0 0.0 320 / 101015.7 1.2 1.2 6.4
2018-Aug-12 17:00N 71°48' W 166°06'0 0.0 350 / 101015.9 1.3 1.3 6.1
2018-Aug-12 16:00N 71°48' W 166°06'0 0.0 350 / 71016.4 1.3 1.3 6.4
2018-Aug-12 15:00N 71°48' W 166°06'2 1.9 010 / 51016.9 1.4 1.4 5.6
2018-Aug-12 14:00N 71°48' W 166°00'0 0.0 010 / 71017.2 1.6 1.6 6.4
2018-Aug-12 13:00N 71°48' W 166°00'1312.6 360 / 81017.5 1.5 1.5 6.5
2018-Aug-12 12:00N 71°36' W 166°12'1313.3 350 / 61017.5 2.0 2.0 6.8
2018-Aug-12 11:00N 71°24' W 166°30'1312.6 040 / 61017.6 2.5 2.5 7.0
2018-Aug-12 10:00N 71°12' W 166°42'1313.3 040 / 91017.3 2.8 2.8 7.7
2018-Aug-12 09:00N 71°00' W 167°00'1818.4 050 / 121017.2 4.2 3.7 8.2
2018-Aug-12 08:00N 70°42' W 167°12'1312.6 070 / 141016.6 4.4 3.2 8.2
2018-Aug-12 07:00N 70°30' W 167°24'1313.4 060 / 151016.4 4.1 3.7 9.1
2018-Aug-12 06:00N 70°18' W 167°42'6 6.3 080 / 181015.9 4.4 3.5 8.6
2018-Aug-12 05:00N 70°12' W 167°48'0 0.0 050 / 201017.0 4.6 3.8 9.0
2018-Aug-12 04:00N 70°12' W 167°48'0 0.0 060 / 171017.3 4.7 3.7 8.7
2018-Aug-12 03:00N 70°12' W 167°48'9 8.6 060 / 171017.5 4.8 4.0 8.2
2018-Aug-12 02:00N 70°06' W 167°30'1413.7 060 / 231017.1 5.1 4.0 9.1
2018-Aug-12 01:00N 70°00' W 166°54'0 0.0 070 / 221017.0 6.1 4.6 9.8
2018-Aug-12 00:00N 70°00' W 166°54'0 0.0 060 / 141017.2 6.2 3.9 9.8
2018-Aug-11 23:00N 70°00' W 166°54'0 0.0 050 / 181017.4 6.1 3.8 9.2
2018-Aug-11 22:00N 70°00' W 166°54'0 0.0 060 / 181017.4 6.2 3.9 9.0
2018-Aug-11 21:00N 70°00' W 166°54'0 0.0 070 / 191017.4 6.2 5.1 9.8
2018-Aug-11 20:00N 70°00' W 166°54'0 0.0 060 / 161017.4 6.2 4.7 9.6
2018-Aug-11 19:00N 70°00' W 166°54'1312.7 080 / 201015.7 6.6 5.4 9.8
2018-Aug-11 18:00N 69°48' W 167°06'125 8.9 080 / 201014.9 8.0 6.210.2
2018-Aug-11 04:00N 67°48' W 168°42'2 2.3 060 / 71013.6 7.2 6.4 6.4
2018-Aug-11 03:00N 67°48' W 168°36'0 0.0 070 / 71013.8 7.4 6.5 6.3
2018-Aug-11 02:00N 67°48' W 168°36'0 0.0 090 / 81013.7 7.1 6.7 6.2
2018-Aug-11 01:00N 67°48' W 168°36'9 9.1 090 / 81013.9 7.4 7.2 6.5
2018-Aug-11 00:00N 67°54' W 168°18'2 2.3 100 / 101014.0 7.6 7.0 7.1
2018-Aug-10 23:00N 67°54' W 168°12'0 0.0 090 / 111013.8 7.8 6.0 6.9
2018-Aug-10 22:00N 67°54' W 168°12'0 0.0 090 / 81013.4 7.4 6.7 6.3
2018-Aug-10 21:00N 67°54' W 168°12'0 0.0 080 / 91013.5 7.4 6.8 6.5
2018-Aug-10 20:00N 67°54' W 168°12'0 0.0 090 / 71013.5 7.6 6.5 6.9
2018-Aug-10 19:00N 67°54' W 168°12'0 0.0 080 / 91013.4 7.7 6.2 6.9
2018-Aug-10 18:00N 67°54' W 168°12'0 0.0 060 / 91013.1 7.7 6.8 7.0
2018-Aug-10 17:00N 67°54' W 168°12'0 0.0 060 / 81013.0 7.7 6.5 7.3
2018-Aug-10 16:00N 67°54' W 168°12'9 9.0 060 / 91012.8 7.6 6.5 7.2
2018-Aug-10 15:00N 68°00' W 167°54'0 0.0 050 / 81013.0 7.8 6.9 7.9
2018-Aug-10 14:00N 68°00' W 167°54'2 2.2 060 / 81013.4 8.0 6.5 7.8
2018-Aug-10 13:00N 68°00' W 167°48'9 9.0 040 / 81013.2 8.2 6.2 8.4
2018-Aug-10 12:00N 68°06' W 167°30'0 0.0 070 / 111013.6 8.4 6.1 9.7
2018-Aug-10 11:00N 68°06' W 167°30'6 6.4 060 / 111013.4 8.5 6.1 9.8
2018-Aug-10 10:00N 68°12' W 167°24'2 2.2 070 / 91013.4 9.2 6.410.3
2018-Aug-10 09:00N 68°12' W 167°18'0 0.0 030 / 121013.0 9.4 5.3 8.3
2018-Aug-10 08:00N 68°12' W 167°18'4 4.5 030 / 151013.0 9.5 5.510.8
2018-Aug-10 07:00N 68°12' W 167°06'6 6.4 030 / 171012.7 9.6 5.510.6
2018-Aug-10 06:00N 68°18' W 167°00'2 2.2 030 / 161012.7 9.7 5.511.3
2018-Aug-10 05:00N 68°18' W 166°54'2 2.2 020 / 161012.3 9.7 5.6 9.6
2018-Aug-10 04:00N 68°18' W 167°00'1413.7 020 / 171011.7 9.4 5.211.2
2018-Aug-10 03:00N 68°06' W 167°18'1413.8 020 / 171011.5 9.4 5.2 9.8
2018-Aug-10 02:00N 67°54' W 167°36'1413.8 020 / 101012.3 8.6 5.3 7.8
2018-Aug-10 01:00N 67°42' W 167°54'1413.8 010 / 71012.7 7.8 4.8 7.3
2018-Aug-10 00:00N 67°30' W 168°12'1413.9 010 / 61012.8 8.1 4.410.6
2018-Aug-09 23:00N 67°18' W 168°30'8 7.6 010 / 101012.6 7.9 4.611.0
2018-Aug-09 22:00N 67°12' W 168°42'0 0.0 030 / 141013.2 8.1 5.410.5
2018-Aug-09 21:00N 67°12' W 168°42'1212.0 020 / 121013.1 8.1 3.7 9.8
2018-Aug-09 20:00N 67°00' W 168°42'1818.0 050 / 111012.3 8.3 4.111.0
2018-Aug-09 19:00N 66°42' W 168°42'6 6.0 050 / 121012.6 8.7 4.710.1
2018-Aug-09 18:00N 66°36' W 168°42'1212.0 060 / 131011.8 8.8 4.611.8
2018-Aug-09 17:00N 66°24' W 168°42'0 0.0 050 / 181012.0 9.0 5.4 9.8
2018-Aug-09 16:00N 66°24' W 168°42'6 6.0 070 / 121012.2 9.1 4.7 8.6
2018-Aug-09 15:00N 66°18' W 168°42'1212.0 080 / 101011.6 8.8 4.511.4
2018-Aug-09 14:00N 66°06' W 168°42'1212.2 080 / 121011.6 8.6 5.0 9.7
2018-Aug-09 13:00N 65°54' W 168°48'1818.0 070 / 141011.2 8.9 5.811.3
2018-Aug-09 12:00N 65°36' W 168°48'1212.3 080 / 181010.6 8.9 6.7 9.9
2018-Aug-09 11:00N 65°24' W 168°54'1918.7 080 / 141010.8 9.4 7.410.0
2018-Aug-09 10:00N 65°06' W 169°06'1212.0 100 / 141011.0 10.1 6.511.5
2018-Aug-09 09:00N 64°54' W 169°06'1212.0 090 / 151011.0 9.9 6.411.7
2018-Aug-09 08:00N 64°42' W 169°06'0 0.0 110 / 181011.1 9.5 7.411.7
2018-Aug-09 07:00N 64°42' W 169°06'1010.3 100 / 141011.4 9.7 6.511.6
2018-Aug-09 06:00N 64°42' W 169°30'1010.3 120 / 131010.5 10.1 6.511.7
2018-Aug-09 05:00N 64°42' W 169°54'0 0.0 100 / 151011.2 10.0 6.811.4
2018-Aug-09 04:00N 64°42' W 169°54'0 0.0 100 / 161011.4 9.9 6.411.2
2018-Aug-09 03:00N 64°42' W 169°54'1212.0 100 / 171011.5 9.8 6.111.6
2018-Aug-09 02:00N 64°54' W 169°54'6 6.0 090 / 131012.3 9.2 5.711.4
2018-Aug-09 01:00N 65°00' W 169°54'5 5.1 080 / 91013.0 8.9 4.2 9.4
2018-Aug-09 00:00N 65°00' W 169°42'1312.7 100 / 101013.4 8.8 4.711.4
2018-Aug-08 23:00N 65°00' W 169°12'3 2.5 070 / 101013.6 8.5 5.111.6
2018-Aug-08 22:00N 65°00' W 169°06'3 2.5 050 / 81013.6 8.7 5.210.8
2018-Aug-08 21:00N 65°00' W 169°00'1414.0 070 / 71013.6 8.2 5.211.2
2018-Aug-08 20:00N 64°54' W 168°30'3 2.5 020 / 71013.4 8.2 5.610.3
2018-Aug-08 19:00N 64°54' W 168°24'0 0.0 340 / 51013.6 8.6 4.910.1
2018-Aug-08 18:00N 64°54' W 168°24'7 6.5 040 / 61013.4 8.8 5.210.7
2018-Aug-08 17:00N 64°48' W 168°30'1211.9 010 / 41013.1 16.713.010.4
2018-Aug-08 16:00N 64°42' W 168°54'5 5.1 060 / 51013.0 8.4 5.211.6
2018-Aug-08 15:00N 64°42' W 169°06'0 0.0 040 / 51013.4 8.8 6.111.1
2018-Aug-08 14:00N 64°42' W 169°06'3 2.6 050 / 71013.6 8.8 6.511.7
2018-Aug-08 13:00N 64°42' W 169°00'1312.8 330 / 31013.2 9.3 5.611.6
2018-Aug-08 12:00N 64°42' W 168°30'8 7.7 030 / 41013.6 8.8 5.110.9
2018-Aug-08 11:00N 64°42' W 168°12'0 0.0 320 / 51013.7 8.7 5.010.2
2018-Aug-08 10:00N 64°42' W 168°12'0 0.0 320 / 51013.6 8.6 4.810.9
2018-Aug-08 09:00N 64°42' W 168°12'1414.2 340 / 71013.2 8.6 4.911.8
2018-Aug-08 08:00N 64°36' W 167°42'1414.2 340 / 91012.8 9.1 4.312.6
2018-Aug-08 07:00N 64°30' W 167°12'1312.9 340 / 121012.3 9.5 5.712.8
2018-Aug-08 06:00N 64°30' W 166°42'1414.3 340 / 141011.8 10.1 5.214.6
2018-Aug-08 05:00N 64°24' W 166°12'1313.0 010 / 171011.2 9.7 6.115.2
2018-Aug-08 04:00N 64°24' W 165°42'5 5.2 330 / 211010.1 10.9 6.719.8
2018-Aug-08 03:00N 64°24' W 165°30'6 6.0 330 / 181011.3 11.1 5.419.8
2018-Aug-08 02:00N 64°30' W 165°30'0 0.0 340 / 121011.1 11.4 5.019.4
2018-Aug-08 01:00N 64°30' W 165°30'0 0.0 330 / 91011.2 11.1 2.819.3
2018-Aug-08 00:00N 64°30' W 165°30'0 0.0 300 / 131011.3 11.0 2.819.2
2018-Aug-07 23:00N 64°30' W 165°30'0 0.0 340 / 131011.4 11.3 2.219.2
2018-Aug-07 22:00N 64°30' W 165°30'0 0.0 330 / 101011.7 10.6 2.219.0
2018-Aug-07 21:00N 64°30' W 165°30'0 0.0 330 / 51011.8 11.2 3.718.8
2018-Aug-07 20:00N 64°30' W 165°30'0 0.0 340 / 71011.8 10.5 4.218.7
2018-Aug-07 19:00N 64°30' W 165°30'0 0.0 1011.6 10.0 3.718.6
2018-Aug-07 18:00N 64°30' W 165°30'0 0.0 330 / 71011.6 13.7 7.918.4
2018-Aug-07 17:00N 64°30' W 165°30'0 0.0 340 / 71011.8 7.6 3.418.3
2018-Aug-07 16:00N 64°30' W 165°30'0 0.0 350 / 71011.5 6.6 4.118.2
2018-Aug-07 15:00N 64°30' W 165°30'0 0.0 360 / 91011.4 6.5 3.918.2
2018-Aug-07 14:00N 64°30' W 165°30'0 0.0 1011.4 6.8 3.418.1
2018-Aug-07 13:00N 64°30' W 165°30'0 0.0 010 / 81011.4 7.4 4.418.0
2018-Aug-07 12:00N 64°30' W 165°30'0 0.0 340 / 61011.3 7.8 4.917.9
2018-Aug-07 11:00N 64°30' W 165°30'0 0.0 350 / 81011.0 8.6 4.517.7
2018-Aug-07 10:00N 64°30' W 165°30'0 0.0 010 / 61010.9 9.4 4.817.6
2018-Aug-07 09:00N 64°30' W 165°30'0 0.0 360 / 81010.6 10.2 4.217.4
2018-Aug-07 08:00N 64°30' W 165°30'0 0.0 010 / 111010.2 11.2 4.417.1
2018-Aug-07 07:00N 64°30' W 165°30'0 0.0 1010.0 12.0 5.616.9
2018-Aug-07 06:00N 64°30' W 165°30'0 0.0 010 / 111009.6 12.6 4.716.5
2018-Aug-07 05:00N 64°30' W 165°30'7 6.5 310 / 131009.2 13.1 5.416.1
2018-Aug-07 04:00N 64°24' W 165°36'1918.7 300 / 191008.8 12.3 6.215.7
2018-Aug-07 03:00N 64°06' W 165°48'1212.3 310 / 181009.4 11.2 6.315.2
2018-Aug-07 02:00N 63°54' W 165°54'1313.1 310 / 151010.1 10.9 7.014.5
2018-Aug-07 01:00N 63°42' W 166°06'1313.1 330 / 141010.3 10.8 6.514.2
2018-Aug-07 00:00N 63°30' W 166°18'1212.3 330 / 101010.4 11.3 6.912.9
2018-Aug-06 23:00N 63°18' W 166°24'1313.2 010 / 71010.4 11.4 7.911.6
2018-Aug-06 22:00N 63°06' W 166°36'1313.2 310 / 61010.4 11.3 8.611.9
2018-Aug-06 21:00N 62°54' W 166°48'1818.2 300 / 61010.4 11.1 9.911.8
2018-Aug-06 20:00N 62°36' W 166°54'1313.2 280 / 141010.1 10.510.512.0
2018-Aug-06 19:00N 62°24' W 167°06'1212.3 270 / 141010.3 10.110.010.8
2018-Aug-06 18:00N 62°12' W 167°12'1212.3 270 / 111010.4 10.6 9.110.6
2018-Aug-06 17:00N 62°00' W 167°18'1313.3 280 / 101010.4 10.3 9.810.1
2018-Aug-06 16:00N 61°48' W 167°30'1818.2 280 / 101010.3 10.2 9.910.5
2018-Aug-06 15:00N 61°30' W 167°36'1212.3 260 / 81011.0 10.210.110.7
2018-Aug-06 14:00N 61°18' W 167°42'1212.3 270 / 81011.0 9.9 9.910.6
2018-Aug-06 13:00N 61°06' W 167°48'1313.3 260 / 81011.0 9.8 9.810.8
2018-Aug-06 12:00N 60°54' W 168°00'1212.4 270 / 101011.4 9.9 9.910.9
2018-Aug-06 11:00N 60°42' W 168°06'1818.2 250 / 111011.8 10.010.010.7
2018-Aug-06 10:00N 60°24' W 168°12'1212.4 240 / 131012.3 9.8 9.810.6
2018-Aug-06 09:00N 60°12' W 168°18'1212.0 240 / 141012.3 9.6 9.610.0
2018-Aug-06 08:00N 60°00' W 168°18'1313.4 220 / 161012.6 9.6 9.6 9.8
2018-Aug-06 07:00N 59°48' W 168°06'1212.4 220 / 141012.9 9.6 9.6 9.4
2018-Aug-06 06:00N 59°36' W 168°00'1919.0 220 / 141013.2 9.4 9.4 9.0
2018-Aug-06 05:00N 59°18' W 167°48'1212.4 220 / 161013.7 9.5 9.5 8.9
2018-Aug-06 04:00N 59°06' W 167°42'1212.4 220 / 181014.0 9.5 9.5 8.7
2018-Aug-06 03:00N 58°54' W 167°36'1212.4 240 / 181014.2 9.4 9.4 8.8
2018-Aug-06 02:00N 58°42' W 167°30'1413.5 240 / 231014.4 9.5 9.5 9.1
2018-Aug-06 01:00N 58°30' W 167°18'1212.4 240 / 241014.4 9.7 9.7 9.2
2018-Aug-06 00:00N 58°18' W 167°12'1212.4 240 / 281014.4 10.2 9.8 9.6
2018-Aug-05 23:00N 58°06' W 167°06'1818.3 240 / 271014.4 10.410.0 9.6
2018-Aug-05 22:00N 57°48' W 167°00'1413.6 240 / 331014.6 10.910.6 9.5
2018-Aug-05 21:00N 57°36' W 166°48'1212.4 220 / 281014.9 11.210.8 9.5
2018-Aug-05 20:00N 57°24' W 166°42'1818.3 220 / 281015.7 11.311.2 9.9
2018-Aug-05 19:00N 57°06' W 166°36'1413.7 220 / 271016.6 11.211.210.2
2018-Aug-05 18:00N 56°54' W 166°24'1212.4 220 / 251017.4 11.311.310.2
2018-Aug-05 17:00N 56°42' W 166°18'1212.4 210 / 231017.8 11.011.010.3
2018-Aug-05 16:00N 56°30' W 166°12'1818.3 210 / 251018.8 11.011.010.4
2018-Aug-05 15:00N 56°12' W 166°06'1413.7 220 / 221019.4 11.011.010.3
2018-Aug-05 14:00N 56°00' W 165°54'1212.5 220 / 221020.2 11.011.010.1
2018-Aug-05 13:00N 55°48' W 165°48'1212.5 220 / 211020.8 11.311.310.1
2018-Aug-05 12:00N 55°36' W 165°42'1212.5 220 / 191022.2 11.411.410.0
2018-Aug-05 11:00N 55°24' W 165°36'1212.5 220 / 201022.5 11.911.8 9.6
2018-Aug-05 10:00N 55°12' W 165°30'1919.3 220 / 161023.5 11.211.0 8.8
2018-Aug-05 09:00N 54°54' W 165°18'1212.5 210 / 151023.9 11.211.0 8.2
2018-Aug-05 08:00N 54°42' W 165°12'1212.5 200 / 151024.3 12.512.0 9.0
2018-Aug-05 07:00N 54°30' W 165°06'1818.4 140 / 81024.7 14.213.7 8.2
2018-Aug-05 06:00N 54°18' W 164°42'1515.2 340 / 131023.8 14.714.1 8.9
2018-Aug-05 05:00N 54°24' W 164°18'1515.2 270 / 181022.9 16.314.810.7
2018-Aug-05 04:00N 54°30' W 163°54'1413.9 310 / 171022.4 17.315.6 9.4
2018-Aug-05 03:00N 54°30' W 163°30'1212.0 280 / 251020.5 15.614.210.9
2018-Aug-05 02:00N 54°36' W 163°12'1515.1 120 / 91022.8 13.111.711.3
2018-Aug-05 01:00N 54°42' W 162°48'1413.9 350 / 261022.0 13.713.1 9.8
2018-Aug-05 00:00N 54°54' W 162°36'1212.0 010 / 81021.5 13.612.210.0
2018-Aug-04 23:00N 55°00' W 162°18'1413.8 340 / 231020.0 13.311.9 9.8
2018-Aug-04 22:00N 55°00' W 161°54'1212.0 280 / 261018.0 15.011.5 9.8
2018-Aug-04 21:00N 55°12' W 161°54'9 9.1 280 / 261019.0 13.410.510.4
2018-Aug-04 20:00N 55°18' W 161°42'   300 / 101017.0 14.510.810.3

Dump ship's entire track history